Retrouvez également nos données météorologiques sur:

UK Metoffice

Weather Underground

AWEKAS

Citizen Weather Observer Program (CWOP)



Rapports METAR à proximité

   
LFOJ - Montargis
Mise à jour: 24-02-2020 02:30
Nuageux  
Nuageux  
   Vent: SO 25.9 km/h
Vent: SO 25.9 km/h
Température: 10°C
éolien: 7°C
Point de rosée: 10°C
Humidité: 100%
Pression atmosphérique: 1026 hPa
Nuages: Nuageux
Visibilité: More than 10 km
Nébulosité: Nuageux 600 ft
LFOJ 240130Z AUTO 23014KT 9999 OVC006 10/10 Q1026
LFOJ - Orléans
Mise à jour: 24-02-2020 02:30
Nuageux  
Nuageux  
   Vent: SO 25.9 km/h
Vent: SO 25.9 km/h
Température: 10°C
éolien: 7°C
Point de rosée: 10°C
Humidité: 100%
Pression atmosphérique: 1026 hPa
Nuages: Nuageux
Visibilité: More than 10 km
Nébulosité: Nuageux 600 ft
LFOJ 240130Z AUTO 23014KT 9999 OVC006 10/10 Q1026
LFQB - Sens
Mise à jour: 24-02-2020 02:00
Nuageux  
Nuageux  
   Vent: SO 25.9 km/h
Vent: SO 25.9 km/h
Température: 11°C
Point de rosée: 9°C
Humidité: 88%
Pression atmosphérique: 1026 hPa
Nuages: Nuageux
Visibilité: More than 10 km
Nébulosité: Nuageux 1200 ft,
Nuageux 4900 ft
LFQB 240100Z AUTO 23014KT 9999 BKN012 OVC049 11/09 Q1026
LFQB - Auxerre
Mise à jour: 24-02-2020 02:00
Nuageux  
Nuageux  
   Vent: SO 25.9 km/h
Vent: SO 25.9 km/h
Température: 11°C
Point de rosée: 9°C
Humidité: 88%
Pression atmosphérique: 1026 hPa
Nuages: Nuageux
Visibilité: More than 10 km
Nébulosité: Nuageux 1200 ft,
Nuageux 4900 ft
LFQB 240100Z AUTO 23014KT 9999 BKN012 OVC049 11/09 Q1026
LFPO - Paris
Mise à jour: 24-02-2020 02:30
Nuageux  
Nuageux  
   Vent: SO 18.5 km/h
Vent: SO 18.5 km/h
Température: 11°C
Point de rosée: 11°C
Humidité: 100%
Pression atmosphérique: 1025 hPa
Nuages: Nuageux
Visibilité: More than 10 km
Nébulosité: Nuageux 700 ft
LFPO 240130Z 23010KT 9999 OVC007 11/11 Q1025 TEMPO 2000 DZ BKN003
LFLX - Bourges
Mise à jour: 24-02-2020 02:30
Nuageux  
Nuageux  
   Vent: SO 20.4 km/h
Vent: SO 20.4 km/h
Température: 9°C
éolien: 6°C
Point de rosée: 9°C
Humidité: 100%
Pression atmosphérique: 1029 hPa
Nuages: Nuageux
Visibilité: More than 10 km
Nébulosité: Nuageux 400 ft
LFLX 240130Z AUTO 22011KT 9999 OVC004 09/09 Q1029

Original script by  Saratoga-weather.org Adapted for the template by  Weerstation Leuven